sensor_id;sensor_type;location;lat;lon;timestamp;pressure;altitude;pressure_sealevel;temperature;humidity
50696;BME280;36665;51.786;21.594;2022-08-07T00:04:21;100853.29;;;14.75;70.75
50696;BME280;36665;51.786;21.594;2022-08-07T00:12:46;100862.64;;;14.55;70.66
50696;BME280;36665;51.786;21.594;2022-08-07T00:21:23;100867.42;;;14.40;70.76
50696;BME280;36665;51.786;21.594;2022-08-07T00:30:06;100876.70;;;14.29;70.83
50696;BME280;36665;51.786;21.594;2022-08-07T00:38:48;100880.77;;;14.23;70.86
50696;BME280;36665;51.786;21.594;2022-08-07T00:47:12;100879.23;;;14.22;70.88
50696;BME280;36665;51.786;21.594;2022-08-07T00:55:55;100874.00;;;14.03;70.62
50696;BME280;36665;51.786;21.594;2022-08-07T01:04:24;100876.38;;;13.90;70.71
50696;BME280;36665;51.786;21.594;2022-08-07T01:12:52;100879.08;;;13.80;70.87
50696;BME280;36665;51.786;21.594;2022-08-07T01:21:19;100881.14;;;13.62;70.46
50696;BME280;36665;51.786;21.594;2022-08-07T01:29:51;100880.81;;;13.46;70.29
50696;BME280;36665;51.786;21.594;2022-08-07T01:38:16;100874.31;;;13.30;70.30
50696;BME280;36665;51.786;21.594;2022-08-07T01:46:54;100866.25;;;13.13;70.27
50696;BME280;36665;51.786;21.594;2022-08-07T01:55:24;100868.65;;;12.98;70.18
50696;BME280;36665;51.786;21.594;2022-08-07T02:04:12;100872.30;;;12.99;70.57
50696;BME280;36665;51.786;21.594;2022-08-07T02:12:44;100879.06;;;12.97;70.34
50696;BME280;36665;51.786;21.594;2022-08-07T02:21:18;100881.31;;;12.98;70.21
50696;BME280;36665;51.786;21.594;2022-08-07T02:29:43;100881.30;;;12.88;69.60
50696;BME280;36665;51.786;21.594;2022-08-07T02:38:20;100884.81;;;12.72;69.57
50696;BME280;36665;51.786;21.594;2022-08-07T02:46:59;100893.50;;;12.51;69.25
50696;BME280;36665;51.786;21.594;2022-08-07T02:55:26;100897.14;;;12.35;69.29
50696;BME280;36665;51.786;21.594;2022-08-07T03:04:12;100899.44;;;12.10;69.15
50696;BME280;36665;51.786;21.594;2022-08-07T03:12:38;100906.19;;;12.02;69.72
50696;BME280;36665;51.786;21.594;2022-08-07T03:21:06;100902.65;;;11.99;69.68
50696;BME280;36665;51.786;21.594;2022-08-07T03:29:35;100892.71;;;11.82;69.41
50696;BME280;36665;51.786;21.594;2022-08-07T03:38:03;100892.38;;;11.75;69.78
50696;BME280;36665;51.786;21.594;2022-08-07T03:46:32;100906.61;;;11.71;69.70
50696;BME280;36665;51.786;21.594;2022-08-07T03:55:00;100912.60;;;11.74;70.52
50696;BME280;36665;51.786;21.594;2022-08-07T04:03:30;100918.83;;;12.16;71.07
50696;BME280;36665;51.786;21.594;2022-08-07T04:12:14;100924.27;;;12.44;70.71
50696;BME280;36665;51.786;21.594;2022-08-07T04:20:51;100935.70;;;12.75;71.02
50696;BME280;36665;51.786;21.594;2022-08-07T04:29:17;100934.63;;;13.18;70.60
50696;BME280;36665;51.786;21.594;2022-08-07T04:37:45;100929.11;;;13.58;70.69
50696;BME280;36665;51.786;21.594;2022-08-07T04:46:54;100932.00;;;14.15;71.03
50696;BME280;36665;51.786;21.594;2022-08-07T04:55:50;100944.69;;;14.87;71.46
50696;BME280;36665;51.786;21.594;2022-08-07T05:05:05;100949.92;;;15.67;70.91
50696;BME280;36665;51.786;21.594;2022-08-07T05:13:38;100959.81;;;16.32;70.16
50696;BME280;36665;51.786;21.594;2022-08-07T05:22:24;100970.29;;;16.92;69.68
50696;BME280;36665;51.786;21.594;2022-08-07T05:30:52;100967.98;;;17.40;68.34
50696;BME280;36665;51.786;21.594;2022-08-07T05:39:20;100965.91;;;17.54;67.03
50696;BME280;36665;51.786;21.594;2022-08-07T05:48:06;100963.87;;;17.75;66.94
50696;BME280;36665;51.786;21.594;2022-08-07T05:56:34;100970.81;;;18.25;67.23
50696;BME280;36665;51.786;21.594;2022-08-07T06:05:02;100967.33;;;18.71;66.29
50696;BME280;36665;51.786;21.594;2022-08-07T06:13:27;100969.32;;;19.34;66.31
50696;BME280;36665;51.786;21.594;2022-08-07T06:22:11;100976.58;;;19.88;64.80
50696;BME280;36665;51.786;21.594;2022-08-07T06:30:50;100982.23;;;20.23;64.50
50696;BME280;36665;51.786;21.594;2022-08-07T06:39:16;100982.60;;;20.46;62.68
50696;BME280;36665;51.786;21.594;2022-08-07T06:48:00;100982.73;;;20.36;61.63
50696;BME280;36665;51.786;21.594;2022-08-07T06:56:33;100979.27;;;20.05;61.08
50696;BME280;36665;51.786;21.594;2022-08-07T07:05:15;100975.67;;;20.31;61.73
50696;BME280;36665;51.786;21.594;2022-08-07T07:14:03;100984.97;;;20.88;60.59
50696;BME280;36665;51.786;21.594;2022-08-07T07:22:30;100979.50;;;21.06;60.40
50696;BME280;36665;51.786;21.594;2022-08-07T07:31:20;100973.11;;;21.22;59.49
50696;BME280;36665;51.786;21.594;2022-08-07T07:39:46;100970.90;;;21.37;59.19
50696;BME280;36665;51.786;21.594;2022-08-07T07:48:19;100970.17;;;21.45;58.52
50696;BME280;36665;51.786;21.594;2022-08-07T07:56:57;100970.52;;;21.84;58.21
50696;BME280;36665;51.786;21.594;2022-08-07T08:05:23;100968.09;;;21.73;56.63
50696;BME280;36665;51.786;21.594;2022-08-07T08:14:04;100967.17;;;21.71;57.13
50696;BME280;36665;51.786;21.594;2022-08-07T08:22:28;100966.26;;;22.14;57.45
50696;BME280;36665;51.786;21.594;2022-08-07T08:31:28;100965.27;;;22.56;56.68
50696;BME280;36665;51.786;21.594;2022-08-07T08:40:55;100964.28;;;23.03;56.21
50696;BME280;36665;51.786;21.594;2022-08-07T08:49:28;100963.80;;;23.25;55.20
50696;BME280;36665;51.786;21.594;2022-08-07T08:58:21;100968.50;;;23.08;54.11
50696;BME280;36665;51.786;21.594;2022-08-07T09:15:31;100961.93;;;23.26;54.00
50696;BME280;36665;51.786;21.594;2022-08-07T09:24:30;100951.68;;;23.35;53.05
50696;BME280;36665;51.786;21.594;2022-08-07T09:42:08;100937.27;;;23.22;52.78
50696;BME280;36665;51.786;21.594;2022-08-07T10:00:21;100927.29;;;22.56;51.03
50696;BME280;36665;51.786;21.594;2022-08-07T10:09:17;100923.52;;;22.74;52.26
50696;BME280;36665;51.786;21.594;2022-08-07T10:27:39;100913.15;;;23.18;50.38
50696;BME280;36665;51.786;21.594;2022-08-07T10:54:03;100896.02;;;23.15;48.71
50696;BME280;36665;51.786;21.594;2022-08-07T11:19:39;100869.58;;;23.04;48.81
50696;BME280;36665;51.786;21.594;2022-08-07T11:28:15;100867.27;;;22.98;48.29
50696;BME280;36665;51.786;21.594;2022-08-07T11:55:00;100854.15;;;22.64;46.86
50696;BME280;36665;51.786;21.594;2022-08-07T12:13:03;100854.86;;;22.90;48.05
50696;BME280;36665;51.786;21.594;2022-08-07T12:22:09;100842.49;;;23.12;47.45
50696;BME280;36665;51.786;21.594;2022-08-07T12:30:58;100828.78;;;23.37;48.02
50696;BME280;36665;51.786;21.594;2022-08-07T12:39:25;100825.63;;;23.63;47.36
50696;BME280;36665;51.786;21.594;2022-08-07T12:48:22;100825.26;;;23.29;46.18
50696;BME280;36665;51.786;21.594;2022-08-07T12:57:04;100814.59;;;23.20;46.81
50696;BME280;36665;51.786;21.594;2022-08-07T13:15:31;100802.30;;;23.06;46.62
50696;BME280;36665;51.786;21.594;2022-08-07T13:32:57;100782.67;;;23.08;46.35
50696;BME280;36665;51.786;21.594;2022-08-07T13:41:41;100780.52;;;23.00;46.19
50696;BME280;36665;51.786;21.594;2022-08-07T13:50:10;100778.59;;;23.04;46.49
50696;BME280;36665;51.786;21.594;2022-08-07T13:58:57;100773.25;;;23.31;46.55
50696;BME280;36665;51.786;21.594;2022-08-07T14:07:30;100767.73;;;23.41;46.19
50696;BME280;36665;51.786;21.594;2022-08-07T14:16:01;100764.95;;;23.09;45.77
50696;BME280;36665;51.786;21.594;2022-08-07T14:24:38;100753.52;;;23.06;46.39
50696;BME280;36665;51.786;21.594;2022-08-07T14:33:04;100744.86;;;22.90;46.73
50696;BME280;36665;51.786;21.594;2022-08-07T14:41:31;100739.08;;;22.62;47.04
50696;BME280;36665;51.786;21.594;2022-08-07T14:50:15;100735.40;;;22.40;47.16
50696;BME280;36665;51.786;21.594;2022-08-07T14:58:52;100735.96;;;22.21;48.30
50696;BME280;36665;51.786;21.594;2022-08-07T15:07:19;100732.45;;;22.00;48.54
50696;BME280;36665;51.786;21.594;2022-08-07T15:15:46;100727.14;;;22.02;48.70
50696;BME280;36665;51.786;21.594;2022-08-07T15:24:28;100725.96;;;22.08;48.77
50696;BME280;36665;51.786;21.594;2022-08-07T15:33:16;100724.39;;;21.98;48.99
50696;BME280;36665;51.786;21.594;2022-08-07T15:42:01;100718.06;;;21.88;49.53
50696;BME280;36665;51.786;21.594;2022-08-07T15:50:47;100717.39;;;21.67;50.15
50696;BME280;36665;51.786;21.594;2022-08-07T15:59:32;100717.88;;;21.25;50.53
50696;BME280;36665;51.786;21.594;2022-08-07T16:08:11;100716.42;;;21.07;51.06
50696;BME280;36665;51.786;21.594;2022-08-07T16:17:02;100712.50;;;21.17;49.60
50696;BME280;36665;51.786;21.594;2022-08-07T16:34:47;100712.16;;;20.97;48.44
50696;BME280;36665;51.786;21.594;2022-08-07T17:01:34;100719.85;;;20.59;48.74
50696;BME280;36665;51.786;21.594;2022-08-07T17:19:17;100722.09;;;20.18;48.91
50696;BME280;36665;51.786;21.594;2022-08-07T17:28:16;100724.41;;;19.95;49.12
50696;BME280;36665;51.786;21.594;2022-08-07T17:36:50;100727.16;;;19.75;49.35
50696;BME280;36665;51.786;21.594;2022-08-07T17:45:38;100728.09;;;19.55;49.77
50696;BME280;36665;51.786;21.594;2022-08-07T17:54:21;100730.63;;;19.34;49.96
50696;BME280;36665;51.786;21.594;2022-08-07T18:03:17;100733.69;;;19.08;50.41
50696;BME280;36665;51.786;21.594;2022-08-07T18:11:54;100741.48;;;18.79;50.96
50696;BME280;36665;51.786;21.594;2022-08-07T18:30:10;100753.55;;;18.02;52.19
50696;BME280;36665;51.786;21.594;2022-08-07T19:06:28;100778.88;;;15.85;54.99
50696;BME280;36665;51.786;21.594;2022-08-07T19:15:17;100785.77;;;15.47;55.64
50696;BME280;36665;51.786;21.594;2022-08-07T19:24:05;100791.52;;;15.14;56.38
50696;BME280;36665;51.786;21.594;2022-08-07T19:32:36;100790.23;;;14.81;56.73
50696;BME280;36665;51.786;21.594;2022-08-07T19:41:07;100790.27;;;14.46;57.20
50696;BME280;36665;51.786;21.594;2022-08-07T19:49:39;100793.79;;;14.21;57.86
50696;BME280;36665;51.786;21.594;2022-08-07T19:58:25;100801.35;;;14.12;58.36
50696;BME280;36665;51.786;21.594;2022-08-07T20:06:53;100803.17;;;14.02;58.55
50696;BME280;36665;51.786;21.594;2022-08-07T20:15:20;100801.42;;;13.84;59.14
50696;BME280;36665;51.786;21.594;2022-08-07T20:23:58;100806.30;;;13.61;59.39
50696;BME280;36665;51.786;21.594;2022-08-07T20:32:42;100808.63;;;13.45;59.64
50696;BME280;36665;51.786;21.594;2022-08-07T20:41:09;100814.81;;;13.22;59.80
50696;BME280;36665;51.786;21.594;2022-08-07T20:49:40;100816.39;;;12.88;60.27
50696;BME280;36665;51.786;21.594;2022-08-07T20:58:30;100818.30;;;12.66;61.06
50696;BME280;36665;51.786;21.594;2022-08-07T21:06:59;100816.23;;;12.55;61.38
50696;BME280;36665;51.786;21.594;2022-08-07T21:15:37;100809.63;;;12.47;61.96
50696;BME280;36665;51.786;21.594;2022-08-07T21:24:42;100808.57;;;12.40;62.20
50696;BME280;36665;51.786;21.594;2022-08-07T21:33:33;100809.95;;;12.28;62.34
50696;BME280;36665;51.786;21.594;2022-08-07T22:00:05;100806.14;;;12.06;63.14
50696;BME280;36665;51.786;21.594;2022-08-07T22:09:03;100803.15;;;11.99;63.12
50696;BME280;36665;51.786;21.594;2022-08-07T22:17:40;100805.38;;;11.86;63.12
50696;BME280;36665;51.786;21.594;2022-08-07T22:26:36;100810.29;;;11.72;63.31
50696;BME280;36665;51.786;21.594;2022-08-07T22:35:06;100814.22;;;11.68;63.63
50696;BME280;36665;51.786;21.594;2022-08-07T22:43:41;100815.20;;;11.62;63.67
50696;BME280;36665;51.786;21.594;2022-08-07T23:01:12;100810.42;;;11.30;64.15
50696;BME280;36665;51.786;21.594;2022-08-07T23:10:14;100810.49;;;11.21;64.24
